メインページ
METAR-TAF:

METAR-TAF

空港 :

マルティニーク・エメ・セゼール国際空港

フォール=ド=フランス, マルティニーク

緯度: 14-36N, 経度: 061-00W, 海抜: 5m

現時点の気象観測

当レポートは32分前の23:00(UTC)に作成
の風 3kt、北東から東/南東の間で変化する
気温 28°C
湿度 74%
気圧 1013 hPa
視程10km以上
1,500メートル以下は雲なし、積乱雲なし

METAR: TFFF 242300Z AUTO 09003KT 040V120 CAVOK 28/23 Q1013 NOSIG

時間: 19:32 (23:32 UTC)

予報

当レポートは7時間32分前の16:00(UTC)に作成
予報は24日の 18時(UTC)から 25日の 18時(UTC)まで有効
の風 10kt
視程10km以上
高度2500ftの雲は散在している
高度4000ftの千切れ雲あり
25日の 03時(UTC)から 25日の 18時(UTC)まで一時的に
視程: 3000m
高度1800ftの千切れ雲あり, 塔状積雲.
にわか雨
確率 30% :
25日の 03時(UTC)から 25日の 10時(UTC)まで一時的に
視程: 1000m
高度1500ftの千切れ雲あり, 積乱雲.
激しい雷雨, 雨

TAF: TFFF 241600Z 2418/2518 10010KT 9999 SCT025 BKN040 TEMPO 2503/2518 3000 SHRA BKN018TCU PROB30 TEMPO 2503/2510 1000 TSRA BKN015CB

4,000以上の空港の気象観測と天気予報(METAR報とTAF報)

利用可能な観測所は地図上に黄色い丸と赤い丸で示す。

丸の上にカーソルを重ねると観測所名を参照できる。

次にクリックすると気象観測と天気予報を参照できる。

マップの切り替え:黒色「×」印の緑ボタンをクリックして拡大、「-」印の緑ボタンをクリックして縮小、緑色の三角印をクリックして隣りの地図に切り替え


METAR-TAF: